Time;durP1;ratioP1;P1;durP2;ratioP2;P2;SDS_P1;SDS_P2;PMS_P1;PMS_P2;Temp;Humidity;BMP_temperature;BMP_pressure;BME280_temperature;BME280_humidity;BME280_pressure;Samples;Min_cycle;Max_cycle;Signal;HPM_P1;HPM_P2
2023/01/12 00:02:26;;;;;;;4.20;2.37;;;;;;;-4.19;100.00;101457.22;31626928;28;20038;-85
2023/01/12 00:17:28;;;;;;;8.27;3.57;;;;;;;-4.35;100.00;101458.53;31625426;28;20052;-85
2023/01/12 00:32:29;;;;;;;5.37;4.17;;;;;;;-4.41;100.00;101460.44;31623606;28;20493;-85
2023/01/12 00:47:32;;;;;;;10.30;2.63;;;;;;;-4.44;100.00;101481.41;31617137;28;20048;-86
2023/01/12 01:02:34;;;;;;;20.83;4.37;;;;;;;-4.22;100.00;101474.50;31654010;28;20106;-85
2023/01/12 01:17:36;;;;;;;9.97;5.13;;;;;;;-4.28;100.00;101464.25;31619927;28;20087;-86
2023/01/12 01:32:38;;;;;;;4.47;3.70;;;;;;;-4.50;100.00;101462.94;31599207;28;20040;-86
2023/01/12 01:47:49;;;;;;;3.87;3.53;;;;;;;-4.45;100.00;101448.81;31597131;28;20105;-86
2023/01/12 02:02:52;;;;;;;5.73;2.87;;;;;;;-4.61;100.00;101448.22;31616459;28;20546;-87
2023/01/12 02:18:31;;;;;;;17.37;5.03;;;;;;;-4.51;100.00;101434.88;31635540;28;20067;-87
2023/01/12 02:33:57;;;;;;;5.93;4.30;;;;;;;-4.42;100.00;101435.00;31612160;28;20105;-85
2023/01/12 02:49:02;;;;;;;11.67;4.57;;;;;;;-4.50;100.00;101415.25;31593826;28;20076;-85
2023/01/12 03:04:06;;;;;;;3.50;2.90;;;;;;;-4.40;100.00;101402.91;31626339;28;20065;-86
2023/01/12 03:19:31;;;;;;;7.43;3.50;;;;;;;-4.42;100.00;101415.66;31615011;28;20492;-85
2023/01/12 03:34:35;;;;;;;4.60;3.10;;;;;;;-4.21;100.00;101403.69;31624645;28;20093;-86
2023/01/12 03:49:42;;;;;;;3.93;2.57;;;;;;;-4.10;100.00;101391.88;31622436;28;20114;-86
2023/01/12 04:04:44;;;;;;;10.53;4.00;;;;;;;-4.16;100.00;101393.81;31590660;28;20079;-87
2023/01/12 07:46:27;;;;;;;7.53;3.87;;;;;;;-3.70;100.00;101300.19;32034762;22;1392771;-79
2023/01/12 08:01:31;;;;;;;6.27;3.23;;;;;;;-3.40;100.00;101322.75;31555296;28;20110;-81
2023/01/12 08:16:53;;;;;;;4.30;3.67;;;;;;;-2.75;100.00;101335.78;31525026;28;20093;-84
2023/01/12 08:32:06;;;;;;;1.73;1.63;;;;;;;-2.70;100.00;101327.69;31558874;28;20052;-84
2023/01/12 08:47:18;;;;;;;4.83;2.73;;;;;;;-2.25;100.00;101328.53;31472604;28;20078;-85
2023/01/12 09:02:20;;;;;;;3.97;3.13;;;;;;;-2.06;100.00;101321.16;31473853;28;20144;-84
2023/01/12 09:17:22;;;;;;;17.37;5.40;;;;;;;-1.87;100.00;101318.28;31476310;28;20045;-82
2023/01/12 09:32:24;;;;;;;6.73;3.70;;;;;;;-1.82;100.00;101304.84;31458214;28;20054;-77
2023/01/12 09:48:00;;;;;;;7.10;2.50;;;;;;;-1.48;100.00;101298.13;31437962;28;20054;-77
2023/01/12 10:03:27;;;;;;;4.50;3.10;;;;;;;-1.50;100.00;101281.66;31457284;28;20080;-77
2023/01/12 10:18:38;;;;;;;3.43;2.27;;;;;;;-1.06;100.00;101273.47;31445784;28;20083;-78
2023/01/12 10:34:06;;;;;;;5.00;3.43;;;;;;;-0.80;100.00;101249.50;31444580;28;20057;-78
2023/01/12 10:49:18;;;;;;;6.23;2.43;;;;;;;-0.96;100.00;101234.28;31429834;28;20153;-79
2023/01/12 11:04:26;;;;;;;8.37;3.50;;;;;;;-0.90;100.00;101233.00;31441325;28;20048;-79
2023/01/12 16:38:30;;;;;;;6.17;4.33;;;;;;;-2.20;100.00;101194.63;31377831;28;20449;-83
2023/01/12 16:53:33;;;;;;;8.97;5.47;;;;;;;-2.14;100.00;101164.13;31387102;28;20478;-84
2023/01/12 17:08:35;;;;;;;8.20;6.17;;;;;;;-2.01;100.00;101147.28;31348075;28;20125;-83
2023/01/12 17:23:39;;;;;;;10.70;4.87;;;;;;;-2.04;100.00;101142.56;31379444;28;20155;-78
2023/01/12 17:38:41;;;;;;;11.27;4.53;;;;;;;-2.02;100.00;101144.91;31359482;28;20425;-78
2023/01/12 17:53:43;;;;;;;7.60;5.33;;;;;;;-1.90;100.00;101148.56;31325219;28;20119;-78
2023/01/12 18:08:47;;;;;;;8.07;5.57;;;;;;;-1.65;100.00;101148.94;31387672;28;20044;-84
2023/01/12 18:23:50;;;;;;;8.60;5.03;;;;;;;-1.38;100.00;101153.97;31330428;28;20494;-80
2023/01/12 18:38:52;;;;;;;9.17;5.93;;;;;;;-1.08;100.00;101158.38;31321318;28;20050;-84
2023/01/12 18:53:55;;;;;;;17.47;6.40;;;;;;;-1.06;100.00;101161.53;31364028;28;20739;-80
2023/01/12 19:39:58;;;;;;;10.20;4.63;;;;;;;-0.80;100.00;101145.50;31352986;28;20437;-78
2023/01/12 19:55:03;;;;;;;11.40;4.87;;;;;;;-0.51;100.00;101128.03;31336956;28;20048;-79
2023/01/12 20:10:05;;;;;;;8.40;5.37;;;;;;;-0.56;100.00;101128.22;31343132;28;20064;-77
2023/01/12 20:25:08;;;;;;;7.13;4.57;;;;;;;-1.00;100.00;101108.84;31349910;28;20535;-78
2023/01/12 20:40:11;;;;;;;14.03;5.67;;;;;;;-0.95;100.00;101113.25;31379197;28;20114;-81
2023/01/12 20:55:13;;;;;;;6.40;4.70;;;;;;;-1.07;100.00;101105.88;31336614;28;20077;-81
2023/01/12 21:10:15;;;;;;;6.83;3.70;;;;;;;-0.89;100.00;101107.41;31342077;28;20469;-79
2023/01/12 21:25:17;;;;;;;6.33;4.17;;;;;;;-0.69;100.00;101092.63;31351705;28;20061;-78
2023/01/12 21:40:19;;;;;;;11.90;5.87;;;;;;;-0.66;100.00;101094.66;31339805;28;20079;-78
2023/01/12 21:55:22;;;;;;;11.47;4.27;;;;;;;-0.40;100.00;101092.69;31364139;28;20067;-78
2023/01/12 22:10:29;;;;;;;5.83;4.43;;;;;;;-0.36;100.00;101066.94;31346697;28;20111;-79
2023/01/12 22:25:31;;;;;;;11.20;3.87;;;;;;;-0.31;100.00;101062.53;31350284;28;20060;-79
2023/01/12 22:40:33;;;;;;;10.17;5.33;;;;;;;-0.36;100.00;101061.59;31384547;28;20045;-77
2023/01/12 22:55:39;;;;;;;19.70;8.17;;;;;;;-0.01;100.00;101056.88;31366993;28;20728;-78
2023/01/12 23:10:41;;;;;;;;;;;;;;;0.24;100.00;101051.66;31344590;28;20049;-79
2023/01/12 23:25:45;;;;;;;17.87;5.73;;;;;;;-0.02;100.00;101054.53;31350464;28;20461;-78
2023/01/12 23:40:47;;;;;;;17.37;6.50;;;;;;;0.04;100.00;101047.88;31362071;28;20538;-77
2023/01/12 23:55:49;;;;;;;9.40;6.37;;;;;;;-0.06;100.00;101048.25;31372832;28;20049;-78
